Airfield :







YOU CAN JOIN US ON...

 
LOGIN :

Register | Disclaimer

   EN    FR    IT 

 









Legend :    VFR   Marginal VFR   IFR   Intensive IFR   Very Intensive IFR
Visi :
Ceiling :
>= 8 km
>= 3000ft
5 to 8 km
1000 to 3000 ft
1500m to 5 km
500 to 1000 ft
800 to 1500m
200 to 500 ft
< 800m
< 200 ft
Symbols :   Thunderstorms  Fog  Heavy snow  Heavy precipitations  Wind > 20 kt






- Airport Elevation : 192 ft
- IATA code : BGR


KBGR - Bangor International

CURRENT METAR :
  • 171853Z 10004KT 10SM SCT075 23/06 A3021 RMK AO2 SLP229 T02330056

EXPIRED METARs :
  • 171753Z 00000KT 10SM FEW065 SCT090 SCT200 22/07 A3023 RMK AO2 SLP234 T02220067 10233 20122 56021
  • 171653Z 09004KT 10SM SCT060 SCT200 22/07 A3025 RMK AO2 SLP240 T02220067
  • 171553Z 03003KT 10SM FEW054 FEW200 21/07 A3027 RMK AO2 SLP248 T02110072

TAF KBGR
Valid from the 17 at 18:00 until the 18 at 18:00 UTC


171720Z 1718/1818 04004KT P6SM SCT100
FM172100 19008KT P6SM VCSH BKN200
FM172300 19007KT P6SM SCT250
FM181300 24006KT P6SM VCSH BKN100
KZBW FIR / North America



MET'MAP, your aeronautical weather chart ! - Copyright ORBIFLY December 2007 - Disclaimer

ORBIFLY MET'MAP TEAM :

Programming & Development : Alexandra Zaïnal
Concept & original design : Baudouin d'Aumeries
Assistance for programming : Marc-Olivier Méhu
Technical & hardware support : Manuel Goepfert

Contact : metmap@orbifly.com




SOURCES & CREDITS :

   NOAA